KPHX

Phoenix Sky Harbor International Airport

Phoenix, Arizona, USA
KPHX 221500Z 2215/2318 25006KT P6SM FEW100 FEW200 FM222100 33012KT P6SM FEW120 FM230200 05005KT P6SM SKC
Issued Valid From Valid To
Jan-22 @ 15:00 UTC
(3 hours ago)
Jan-22 @ 15:00 UTC
(3 hours ago)
Jan-23 @ 18:00 UTC
(in 24 hours)
Jan-22 @ 15:00 to Jan-22 @ 21:00
KPHX 221500Z 2215/2318 25006KT P6SM FEW100 FEW200
Wind Visibility Clouds
250° at 6 knots Greater than 6 miles
  • Few at 10,000' AGL
  • Few at 20,000' AGL
From Jan-22 @ 21:00 to Jan-23 @ 02:00
FM222100 33012KT P6SM FEW120
Wind Visibility Clouds
330° at 12 knots Greater than 6 miles
  • Few at 12,000' AGL
From Jan-23 @ 02:00 to Jan-23 @ 18:00
FM230200 05005KT P6SM SKC
Wind Visibility Clouds
50° at 5 knots Greater than 6 miles
  • Clear skies
KPHX 221500Z 2215/2318 25006KT P6SM FEW100 FEW200 FM222100 33012KT P6SM FEW120 FM230200 05005KT P6SM SKC
Issued Jan-22 @ 15:00 UTC
(3 hours ago)
Valid From Jan-22 @ 15:00 UTC
(3 hours ago)
Valid To Jan-23 @ 18:00 UTC
(in 24 hours)
Jan-22 @ 15:00 - Jan-22 @ 21:00
Wind Visibility
250° at 6 knots Greater than 6 miles
Clouds
  • Few at 10,000' AGL
  • Few at 20,000' AGL
From Jan-22 @ 21:00 - Jan-23 @ 02:00
Wind Visibility
330° at 12 knots Greater than 6 miles
Clouds
  • Few at 12,000' AGL
From Jan-23 @ 02:00 - Jan-23 @ 18:00
Wind Visibility
50° at 5 knots Greater than 6 miles
Clouds
  • Clear skies